Skagway, AK (99840)

4:43 PM AKST on December 22, 2014 (GMT -0900)
RAWS SHEEP CAMP AK US | Change Station
CLOSE
Current Station
Personal Weather Station
Location: Skagway, AK
Elevation: 919 ft
Nearby Weather Stations

Elev 919 ft 59.66 °N, 135.27 °W | Updated 1 hour ago

Mostly Cloudy
Mostly Cloudy
34 °F
Feels Like 34 °F
N
0
Wind Variable Wind from North
Gusts 2.0 mph

Today
High -- | Low -- °F
--% Chance of Precip.
Yesterday
High -- | Low -- °F
Precip. -- in
8:58 AM 3:01 PM
New Moon, 1% visible
Pressure 30.04 in
Visibility 10.0 miles
Clouds Scattered Clouds 5000 ft
Mostly Cloudy 8000 ft
Windchill 34 °F
Dew Point 34 °F
Humidity 100%
Rainfall 0.00 in
Snow Depth Not available.
UV 0 out of 12
Pollen Not available.
Air Quality Not available.
Flu Activity Not available.
METAR PAGY 230053Z AUTO 20014G22KT 10SM SCT050 BKN080 06/02 A3004 RMK AO2 PK WND 19026/2355 SLP171 T00560017 TSNO

More Conditions Fewer Conditions

Pressure 30.04 in
Visibility 10.0 miles
Clouds Scattered Clouds 5000 ft
Mostly Cloudy 8000 ft
Windchill 34 °F
Dew Point 34 °F
Humidity 100%
Rainfall 0.00 in
Snow Depth Not available.
UV 0 out of 12
Pollen Not available.
Air Quality Not available.
Flu Activity Not available.
METAR PAGY 230053Z AUTO 20014G22KT 10SM SCT050 BKN080 06/02 A3004 RMK AO2 PK WND 19026/2355 SLP171 T00560017 TSNO

More Conditions Fewer Conditions

10-Day Weather Forecast

Almanac

Astronomy

Dec. 22, 2014 Rise Set
Actual Time
Civil Twilight
Nautical Twilight
Astronomical Twilight
Moon
Length of Visible Light
Length of Day
Tomorrow will be .
, % of the Moon is Illuminated

Today's Extremes

State Highs State Lows

Community

WunderPhotos

Upload Photos

1,779,753 photos uploaded!

WunderBlogs® & News

Nearby

Air Quality

  Air Quality AQ Index Pollutant
Not available.

Snow Depth

Station Depth Elevation

Earthquake Activity

City Distance Mag. Time & Date
Minimum magnitude displayed is 2.5.

Coastal Water Temperatures

Place Temperature

Nearby Weather Stations